ESMH weather

Höganäs Airport
Höganäs, Skåne län, Sweden

Public forecast

Using degrees Celsius for public forecast. Weather courtesy of forecast.io.

METAR (pilot weather report)

Closest report is Ängelholm-Helsingborg Airport, 11.2 nm (20.8 km) NE. Retrieved 2019/07/23 14:20 UTC (15 minutes ago):

ESTA 231420Z 32010KT 290V350 9999 FEW011 22/17 Q1019

TAF (pilot weather forecast)

Forecast is more than 12 hours old.

Closest forecast is Ljungbyhed Airport, 22.2 nm (41.0 km) ESE. Retrieved 2016/03/01 09:33 UTC (3 years ago):

TAF ESTL 010830Z 0109/0124 14004KT 9999 SCT025